Bei Facebook empfehlenBei Twitter postenGoogle plusPinterest

Das Wetter im Erzgebirge am 11.08.2015

Wetter und Klima am 11.08.2015 Holzhau im Erzgebirge (630m ü.NN)
Letzte gemessene Temperatur und Uhrzeit der Messung23:45:00 Uhr18.10 °C
Temperatur (Maximum / Höchstwert) und Uhrzeit der Messung15:45:00 Uhr34.60 °C
Temperatur (Minimum / Tiefstwert) und Uhrzeit der Messung05:30:0015.30 °C
Errechneter Absolutwert der Temperaturschwankungen zwischen Tmin und Tmax des Tages19.30 K
Errechnete Tagesmitteltemperatur24.98333 °C
Gesamt - Niederschlag des Tages (in flüssiger Form)0.00 Liter / m²
Luftdruck (Maximum / Höchstwert) und Zeitpunkt der Messung23:45:00 Uhr1018.90 hPa
Luftdruck (Minimum / Tiefstwert) und Zeitpunkt der Messung02:30:00 Uhr1014.40 hPa
Errechneter Absolutwert der Luftdruckschwankungen des Tages4.50 hPa
Höchste gemessene Windgeschwindigkeit und Uhrzeit der Messung23:45:00 Uhr0.00 km/h
Errechnete Windhäufigkeit in Relation zu den Messwerten des Tages0.00000 %
Niedrigste Windkühle (Windchill) und Zeitpunkt der Messung05:30:00 Uhr15.30 °C
Taupunkt (Maximum / Höchstwert) und Uhrzeit der Messung17:30:00 Uhr16.30 °C
Taupunkt (Minimum / Tiefstwert) und Uhrzeit der Messung05:00:0010.90 °C
Anzahl der automatisch eingelesenen Messwerte 96

Detaillierte Wetter- und Klima- Messwerte für den 11.08.2015 in Holzhau im Erzgebirge (630m ü.NN)
ZeitTemperaturLuftdruckRel. LuftfeuchteWindWindrichtungWindchillTaupunktNiederschlag l/m²
23:45:0018.10 °C1018.90 hPa77.00 %14.00 °C 
23:30:0018.40 °C1018.70 hPa77.00 %14.30 °C 
23:15:0018.80 °C1018.80 hPa75.00 %14.30 °C 
23:00:0018.90 °C1018.70 hPa74.00 %14.20 °C 
22:45:0019.20 °C1018.70 hPa73.00 %14.20 °C 
22:30:0019.50 °C1018.60 hPa72.00 %14.30 °C 
22:15:0019.80 °C1018.30 hPa71.00 %14.40 °C 
22:00:0019.90 °C1018.20 hPa69.00 %14.00 °C 
21:45:0020.20 °C1017.90 hPa68.00 %14.10 °C 
21:30:0020.80 °C1017.90 hPa65.00 %14.00 °C 
21:15:0021.60 °C1017.60 hPa63.00 %14.30 °C 
21:00:0022.40 °C1017.40 hPa60.00 %14.30 °C 
20:45:0023.30 °C1017.50 hPa57.00 %14.30 °C 
20:30:0024.40 °C1017.40 hPa55.00 %14.80 °C 
20:15:0025.50 °C1017.40 hPa52.00 %14.90 °C 
20:00:0026.40 °C1017.30 hPa51.00 %15.40 °C 
19:45:0027.10 °C1017.20 hPa49.00 %15.50 °C 
19:30:0027.70 °C1016.90 hPa48.00 %15.70 °C 
19:15:0028.40 °C1016.80 hPa46.00 %15.70 °C 
19:00:0029.10 °C1016.70 hPa45.00 %16.00 °C 
18:45:0029.40 °C1016.60 hPa44.00 %15.90 °C 
18:30:0029.80 °C1016.40 hPa43.00 %15.90 °C 
18:15:0030.10 °C1016.20 hPa42.00 %15.80 °C 
18:00:0030.80 °C1016.30 hPa40.00 %15.60 °C 
17:45:0032.20 °C1016.40 hPa37.00 %15.70 °C 
17:30:0032.40 °C1016.40 hPa38.00 %16.30 °C 
17:15:0032.30 °C1016.20 hPa36.00 %15.30 °C 
17:00:0032.30 °C1016.30 hPa35.00 %14.90 °C 
16:45:0032.60 °C1016.30 hPa32.00 %13.80 °C 
16:30:0032.90 °C1016.50 hPa30.00 %13.00 °C 
16:15:0032.90 °C1016.40 hPa30.00 %13.00 °C 
16:00:0034.30 °C1016.20 hPa27.00 %12.60 °C 
15:45:0034.60 °C1016.10 hPa26.00 %12.30 °C 
15:30:0034.30 °C1016.00 hPa27.00 %12.60 °C 
15:15:0034.20 °C1016.40 hPa27.00 %12.50 °C 
15:00:0033.90 °C1016.30 hPa28.00 %12.80 °C 
14:45:0033.80 °C1016.50 hPa28.00 %12.70 °C 
14:30:0033.30 °C1016.50 hPa28.00 %12.30 °C 
14:15:0033.30 °C1016.40 hPa28.00 %12.30 °C 
14:00:0033.10 °C1016.50 hPa30.00 %13.20 °C 
13:45:0032.80 °C1016.50 hPa28.00 %11.90 °C 
13:30:0032.80 °C1016.40 hPa28.00 %11.90 °C 
13:15:0032.70 °C1016.50 hPa30.00 %12.90 °C 
13:00:0032.30 °C1016.20 hPa29.00 %12.00 °C 
12:45:0032.50 °C1016.40 hPa31.00 %13.20 °C 
12:30:0032.40 °C1016.50 hPa29.00 %12.10 °C 
12:15:0032.10 °C1016.40 hPa31.00 %12.80 °C 
12:00:0031.90 °C1016.10 hPa31.00 %12.70 °C 
11:45:0031.50 °C1016.10 hPa31.00 %12.30 °C 
11:30:0031.30 °C1016.00 hPa31.00 %12.20 °C 
11:15:0030.90 °C1016.00 hPa32.00 %12.30 °C 
11:00:0030.90 °C1015.90 hPa32.00 %12.30 °C 
10:45:0030.90 °C1016.00 hPa34.00 %13.20 °C 
10:30:0030.40 °C1015.70 hPa35.00 %13.20 °C 
10:15:0030.20 °C1015.70 hPa36.00 %13.50 °C 
10:00:0030.00 °C1015.70 hPa38.00 %14.10 °C 
09:45:0029.40 °C1015.30 hPa42.00 %15.10 °C 
09:30:0028.30 °C1015.50 hPa44.00 %14.90 °C 
09:15:0026.80 °C1015.60 hPa48.00 %14.90 °C 
09:00:0025.20 °C1015.60 hPa57.00 %16.10 °C 
08:45:0023.80 °C1015.40 hPa59.00 %15.30 °C 
08:30:0022.60 °C1015.40 hPa60.00 %14.40 °C 
08:15:0021.60 °C1015.30 hPa61.00 %13.80 °C 
08:00:0020.80 °C1015.20 hPa63.00 %13.50 °C 
07:45:0019.80 °C1014.90 hPa65.00 %13.00 °C 
07:30:0018.20 °C1014.90 hPa69.00 %12.40 °C 
07:15:0016.60 °C1014.90 hPa72.00 %11.50 °C 
07:00:0016.30 °C1015.00 hPa73.00 %11.50 °C 
06:45:0016.10 °C1014.90 hPa73.00 %11.30 °C 
06:30:0016.00 °C1015.10 hPa73.00 %11.20 °C 
06:15:0016.10 °C1015.10 hPa74.00 %11.50 °C 
06:00:0016.10 °C1015.20 hPa75.00 %11.70 °C 
05:45:0015.70 °C1015.10 hPa77.00 %11.70 °C 
05:30:0015.30 °C1015.00 hPa76.00 %11.10 °C 
05:15:0015.60 °C1015.00 hPa76.00 %11.40 °C 
05:00:0015.50 °C1015.00 hPa74.00 %10.90 °C 
04:45:0016.30 °C1015.10 hPa71.00 %11.00 °C 
04:30:0017.30 °C1014.90 hPa69.00 %11.60 °C 
04:15:0018.60 °C1014.80 hPa67.00 %12.40 °C 
04:00:0019.50 °C1014.60 hPa66.00 %13.00 °C 
03:45:0020.00 °C1014.60 hPa65.00 %13.20 °C 
03:30:0020.50 °C1014.60 hPa65.00 %13.70 °C 
03:15:0020.60 °C1014.60 hPa65.00 %13.80 °C 
03:00:0020.60 °C1014.50 hPa66.00 %14.00 °C 
02:45:0020.10 °C1014.50 hPa67.00 %13.80 °C 
02:30:0019.60 °C1014.40 hPa67.00 %13.30 °C 
02:15:0019.40 °C1014.50 hPa68.00 %13.30 °C 
02:00:0019.90 °C1014.70 hPa67.00 %13.60 °C 
01:45:0020.10 °C1014.50 hPa67.00 %13.80 °C 
01:30:0020.40 °C1014.50 hPa67.00 %14.10 °C 
01:15:0020.40 °C1014.60 hPa67.00 %14.10 °C 
01:00:0020.40 °C1014.60 hPa68.00 %14.30 °C 
00:45:0020.30 °C1014.60 hPa69.00 %14.40 °C 
00:30:0020.30 °C1014.60 hPa69.00 %14.40 °C 
00:15:0020.30 °C1014.90 hPa70.00 %14.70 °C 
00:00:0020.40 °C1015.00 hPa69.00 %14.50 °C 

Permanenter Link zu dieser Seite: Wetter im Erzgebirge am 11.08.2015
Performance-Info: Die Erstellung der Seite / Statistik(en) / Tabelle(n) erforderte 5 Datenbankserver-Abfrage(n) und dauerte 71 Millisekunden. (Dieser Messwert ist von der Gesamt-Auslastung des Servers abhängig.)
Erzgebirge - Wetter | Erzgebirge - Wetter (Mobilgeräte) | Komplette Klimadatenbank